Armona, California
Current Conditions -  °F | °C
As of 7:53 AM on Sunday 21 Dec 2014 (Local Time) from KHJO Reporting Station
Moderate Fog Moderate Fog  
Wind Chill: 49°   Ceiling: 200
Heat Index: 49°   Visibility: 0mi
Dew Point: 48°   Wind: 0mph
Humidity: 97%   Direction: NA
Pressure: 30.31"   Gusts: NA
Location:  36.32°N, 119.71°W
Report Text: KHJO 211553Z AUTO 00000KT M1/4SM FG VV002 09/09 A3031 RMK AO2 SLP264 T00940089
Loading
Personal Weather Stations






























Interactive Weather Map New forecast layout! Learn more

10-Day Weather Forecast

Advertisements
Track Severe Weather on mobile